Terminal Aerodrome Forecast
Issued by NWS

Home | Current Version | Previous Version | Text Only | Print | Product List | Glossary On
Versions: 1 2 3 4 5 6 7 8 9 10 11 12 13 14 15 16 17
000
FTAK31 PAFA 222338
TAFAOM
TAF
PAOM 222338Z 2300/2324 03015KT P6SM BKN200
     FM230600 06012KT P6SM FEW050 SCT100 BKN200
     FM231800 09012KT P6SM SCT050 BKN100 OVC200
     FM232100 09012KT P6SM VCSH SCT035 OVC050=

USA.gov is the U.S. government's official web portal to all federal, state and local government web resources and services.